Time;durP1;ratioP1;P1;durP2;ratioP2;P2;SDS_P1;SDS_P2;PMS_P1;PMS_P2;Temp;Humidity;BMP_temperature;BMP_pressure;BME280_temperature;BME280_humidity;BME280_pressure;Samples;Min_cycle;Max_cycle;Signal;HPM_P1;HPM_P2
2021/12/18 00:02:34;;;;;;;31.17;17.90;;;;;;;1.17;90.33;98088.28;10379144;28;20589;-58
2021/12/18 00:07:34;;;;;;;31.42;16.15;;;;;;;1.16;90.44;98091.69;10378484;28;20043;-58
2021/12/18 00:12:34;;;;;;;31.27;17.52;;;;;;;1.11;90.46;98081.25;10378244;28;20060;-57
2021/12/18 00:17:33;;;;;;;38.20;20.13;;;;;;;1.20;90.46;98092.66;10378493;28;20072;-58
2021/12/18 00:22:32;;;;;;;39.70;21.67;;;;;;;1.18;90.35;98086.59;10378048;28;20043;-58
2021/12/18 00:27:31;;;;;;;39.78;23.60;;;;;;;1.19;90.25;98086.69;10378082;28;20067;-58
2021/12/18 00:32:30;;;;;;;33.40;19.13;;;;;;;1.21;90.22;98094.41;10377591;28;20037;-57
2021/12/18 00:37:29;;;;;;;33.35;19.88;;;;;;;1.17;90.45;98084.88;10377460;28;20040;-58
2021/12/18 00:47:36;;;;;;;29.30;18.05;;;;;;;1.13;90.06;98089.00;10377106;28;20065;-57
2021/12/18 00:52:35;;;;;;;30.00;16.17;;;;;;;1.14;90.60;98079.66;10376819;28;20075;-57
2021/12/18 00:57:36;;;;;;;27.63;14.48;;;;;;;1.23;90.62;98090.25;10376569;28;20075;-57
2021/12/18 01:02:37;;;;;;;26.58;14.52;;;;;;;1.28;90.79;98089.63;10376777;28;20084;-57
2021/12/18 01:07:37;;;;;;;23.00;13.15;;;;;;;1.32;90.80;98094.06;10376397;28;20068;-57
2021/12/18 01:12:41;;;;;;;24.52;13.40;;;;;;;1.38;90.82;98095.09;10376501;28;20484;-57
2021/12/18 01:22:58;;;;;;;25.27;14.82;;;;;;;1.44;91.03;98091.13;10376316;28;20068;-57
2021/12/18 01:27:57;;;;;;;26.30;15.23;;;;;;;1.44;90.59;98090.25;10375751;28;20112;-57
2021/12/18 01:32:56;;;;;;;26.70;14.85;;;;;;;1.41;90.36;98092.66;10375303;28;20032;-57
2021/12/18 01:37:57;;;;;;;25.98;14.02;;;;;;;1.42;90.58;98086.75;10376370;28;20068;-57
2021/12/18 01:53:31;;;;;;;20.30;12.10;;;;;;;1.32;90.18;98086.38;10375221;28;20472;-57
2021/12/18 01:58:31;;;;;;;21.77;12.13;;;;;;;1.36;90.44;98086.50;10374836;28;20547;-57
2021/12/18 02:03:31;;;;;;;23.27;11.68;;;;;;;1.37;90.10;98088.25;10374193;28;20065;-57
2021/12/18 02:08:33;;;;;;;22.60;12.25;;;;;;;1.39;90.19;98086.59;10374483;28;20075;-57
2021/12/18 02:13:47;;;;;;;19.45;11.82;;;;;;;1.42;90.59;98079.09;10374188;28;20441;-58
2021/12/18 02:24:05;;;;;;;33.85;18.55;;;;;;;1.28;90.79;98078.53;10374361;28;20068;-56
2021/12/18 02:29:08;;;;;;;31.42;18.40;;;;;;;1.34;90.70;98071.09;10374029;28;20135;-57
2021/12/18 02:34:15;;;;;;;31.38;17.10;;;;;;;1.36;90.40;98083.94;10373121;28;20064;-57
2021/12/18 02:39:41;;;;;;;34.60;19.42;;;;;;;1.38;90.59;98084.88;10373023;28;20064;-57
2021/12/18 02:44:40;;;;;;;29.48;17.25;;;;;;;1.33;90.35;98079.56;10373625;28;20056;-57
2021/12/18 02:49:49;;;;;;;32.70;18.85;;;;;;;1.25;90.60;98094.63;10373032;28;20480;-57
2021/12/18 02:54:48;;;;;;;28.55;14.82;;;;;;;1.22;90.62;98088.50;10372465;28;20076;-57
2021/12/18 02:59:50;;;;;;;28.23;16.35;;;;;;;1.20;90.45;98091.00;10372624;28;20053;-57
2021/12/18 03:04:54;;;;;;;25.77;14.48;;;;;;;1.29;90.22;98098.16;10371778;28;20076;-57
2021/12/18 03:19:04;;;;;;;27.63;15.07;;;;;;;1.29;90.34;98106.72;10372140;28;20060;-57
2021/12/18 03:25:37;;;;;;;28.08;14.40;;;;;;;1.19;89.86;98103.72;10371849;28;20079;-57
2021/12/18 03:30:37;;;;;;;24.38;12.23;;;;;;;1.19;90.25;98109.69;10372175;28;20496;-57
2021/12/18 03:35:36;;;;;;;;;;;;;;;0.98;88.02;98114.78;10372239;28;20500;-57
2021/12/18 03:40:35;;;;;;;22.50;10.63;;;;;;;0.82;87.53;98120.03;10370929;28;20371;-57
2021/12/18 03:45:34;;;;;;;14.65;9.07;;;;;;;0.86;88.25;98116.81;10371823;28;20053;-57
2021/12/18 03:50:33;;;;;;;18.27;10.13;;;;;;;0.92;88.29;98128.97;10371186;28;20478;-57
2021/12/18 03:55:32;;;;;;;28.27;14.73;;;;;;;1.00;88.89;98128.50;10371309;28;20132;-57
2021/12/18 04:00:31;;;;;;;19.55;10.18;;;;;;;1.05;88.98;98131.25;10371831;28;20108;-57
2021/12/18 04:05:30;;;;;;;19.30;10.90;;;;;;;1.18;89.10;98138.63;10371156;28;20063;-57
2021/12/18 04:10:29;;;;;;;22.55;13.50;;;;;;;1.17;89.29;98131.75;10371088;28;20064;-57
2021/12/18 04:15:30;;;;;;;14.75;7.80;;;;;;;1.29;89.31;98149.28;10372541;28;20341;-57
2021/12/18 04:20:29;;;;;;;13.68;7.30;;;;;;;1.33;89.13;98146.06;10378377;28;20491;-57
2021/12/18 04:25:28;;;;;;;15.00;8.68;;;;;;;1.36;88.94;98160.63;10377987;28;20470;-57
2021/12/18 04:30:27;;;;;;;16.38;8.98;;;;;;;1.33;89.17;98152.03;10377794;28;20088;-57
2021/12/18 04:35:27;;;;;;;21.17;12.07;;;;;;;1.31;89.29;98155.34;10378018;28;20060;-57
2021/12/18 04:40:27;;;;;;;22.55;12.40;;;;;;;1.36;89.25;98165.75;10377460;28;20532;-57
2021/12/18 04:45:26;;;;;;;16.98;8.50;;;;;;;1.36;89.04;98173.44;10377303;28;20052;-57
2021/12/18 04:50:25;;;;;;;;;;;;;;;1.36;88.71;98176.00;10378445;28;20936;-57
2021/12/18 04:55:24;;;;;;;14.45;8.02;;;;;;;1.39;89.27;98179.56;10376730;28;19917;-57
2021/12/18 05:00:29;;;;;;;21.02;11.00;;;;;;;1.41;88.75;98192.38;10377043;28;20087;-57
2021/12/18 05:05:28;;;;;;;19.45;10.93;;;;;;;1.41;89.26;98200.06;10372343;28;20463;-57
2021/12/18 05:10:27;;;;;;;18.40;11.15;;;;;;;1.26;89.14;98188.38;10375768;28;20505;-57
2021/12/18 05:15:26;;;;;;;20.05;12.38;;;;;;;1.36;88.91;98219.44;10373905;28;20529;-57
2021/12/18 05:20:25;;;;;;;14.68;8.60;;;;;;;0.82;85.64;98230.75;10376137;28;20024;-57
2021/12/18 05:25:24;;;;;;;13.90;8.20;;;;;;;0.36;86.38;98249.09;10375569;28;20096;-56
2021/12/18 05:30:23;;;;;;;15.65;8.10;;;;;;;-0.03;87.57;98259.16;10375266;28;20032;-56
2021/12/18 05:35:22;;;;;;;15.65;7.53;;;;;;;-0.15;88.61;98263.66;10375425;28;20130;-56
2021/12/18 05:40:25;;;;;;;19.42;8.77;;;;;;;-0.17;88.83;98266.13;10374894;28;20448;-57
2021/12/18 05:45:24;;;;;;;20.35;9.25;;;;;;;-0.08;89.18;98270.81;10374748;28;20064;-57
2021/12/18 05:50:27;;;;;;;19.88;10.02;;;;;;;0.04;89.64;98271.41;10374744;28;20025;-57
2021/12/18 05:55:30;;;;;;;17.80;10.38;;;;;;;0.16;89.39;98275.34;10374898;28;20064;-57
2021/12/18 06:00:29;;;;;;;19.08;10.13;;;;;;;0.33;89.67;98281.25;10373849;28;20088;-57
2021/12/18 06:05:28;;;;;;;20.90;11.68;;;;;;;0.47;89.83;98286.22;10405695;28;20029;-57
2021/12/18 06:10:32;;;;;;;27.98;15.85;;;;;;;0.51;90.01;98291.47;10413321;28;20041;-57
2021/12/18 06:15:32;;;;;;;37.20;19.98;;;;;;;0.50;90.30;98289.69;10414270;28;20512;-57
2021/12/18 06:20:31;;;;;;;43.92;22.77;;;;;;;0.53;90.48;98294.97;10402494;28;20065;-57
2021/12/18 06:25:30;;;;;;;37.80;21.02;;;;;;;0.48;90.91;98294.75;10347967;28;20407;-57
2021/12/18 06:30:29;;;;;;;46.58;23.60;;;;;;;0.53;90.63;98305.19;10373976;28;20047;-57
2021/12/18 06:35:28;;;;;;;35.72;19.73;;;;;;;0.71;90.65;98308.59;10371388;28;20102;-57
2021/12/18 06:40:27;;;;;;;42.42;22.90;;;;;;;0.85;90.48;98311.78;10371990;28;20037;-57
2021/12/18 06:45:26;;;;;;;34.25;17.92;;;;;;;0.75;90.71;98325.81;10372211;28;20496;-57
2021/12/18 06:50:25;;;;;;;37.78;21.25;;;;;;;0.77;90.81;98311.44;10372857;28;20068;-57
2021/12/18 06:55:24;;;;;;;32.15;18.80;;;;;;;0.89;90.53;98314.53;10371732;28;20503;-57
2021/12/18 07:00:24;;;;;;;28.25;16.30;;;;;;;0.92;90.78;98318.03;10370751;28;20095;-57
2021/12/18 07:05:24;;;;;;;33.67;19.05;;;;;;;1.10;90.63;98334.22;10372359;28;20135;-58
2021/12/18 07:10:23;;;;;;;;;;;;;;;1.27;90.60;98338.44;10370253;28;20087;-57
2021/12/18 07:15:22;;;;;;;37.42;20.42;;;;;;;1.31;90.19;98340.28;10367827;28;19939;-57
2021/12/18 07:20:21;;;;;;;37.38;22.85;;;;;;;1.43;90.28;98342.50;10369264;28;20068;-57
2021/12/18 07:25:20;;;;;;;30.60;20.35;;;;;;;1.56;89.97;98364.41;10388791;28;20487;-57
2021/12/18 07:30:19;;;;;;;;;;;;;;;1.83;90.57;98362.16;10413337;28;20075;-57
2021/12/18 07:35:18;;;;;;;39.88;24.70;;;;;;;2.01;90.24;98359.53;10413432;28;20015;-57
2021/12/18 07:40:17;;;;;;;41.63;26.58;;;;;;;2.19;89.64;98367.13;10412566;28;20068;-57
2021/12/18 07:45:16;;;;;;;34.25;20.65;;;;;;;2.41;89.11;98375.69;10411339;28;20068;-57
2021/12/18 07:50:19;;;;;;;29.20;17.40;;;;;;;2.42;88.78;98375.75;10373713;28;20037;-57
2021/12/18 07:55:18;;;;;;;24.60;16.15;;;;;;;2.57;88.36;98386.59;10380143;28;20068;-57
2021/12/18 08:00:18;;;;;;;23.83;14.77;;;;;;;2.69;87.81;98387.91;10376895;28;20076;-58
2021/12/18 08:05:17;;;;;;;23.15;12.48;;;;;;;2.75;88.16;98385.63;10376696;28;20068;-57
2021/12/18 08:10:16;;;;;;;22.00;14.60;;;;;;;2.77;87.79;98384.00;10378883;28;20077;-57
2021/12/18 08:15:15;;;;;;;31.25;18.02;;;;;;;2.68;87.36;98374.25;10377904;28;20110;-58
2021/12/18 08:20:14;;;;;;;23.17;14.32;;;;;;;2.74;86.98;98389.84;10377888;28;20033;-57
2021/12/18 08:25:13;;;;;;;24.73;14.65;;;;;;;2.66;86.63;98369.88;10377852;28;20065;-57
2021/12/18 08:30:13;;;;;;;24.52;16.40;;;;;;;2.80;86.58;98389.22;10377674;28;20032;-57
2021/12/18 08:35:12;;;;;;;20.50;10.50;;;;;;;2.87;86.24;98403.16;10376744;28;20484;-57
2021/12/18 08:40:12;;;;;;;25.17;15.07;;;;;;;2.93;85.54;98383.78;10377698;28;20466;-57
2021/12/18 08:45:13;;;;;;;22.15;12.75;;;;;;;3.13;85.88;98396.50;10377058;28;20065;-58
2021/12/18 08:50:16;;;;;;;33.38;21.02;;;;;;;3.14;85.54;98405.91;10376283;28;20080;-57
2021/12/18 08:55:17;;;;;;;31.50;20.30;;;;;;;3.09;84.13;98404.88;10376919;28;20068;-57
2021/12/18 09:00:19;;;;;;;29.27;15.85;;;;;;;3.00;85.16;98382.31;10375485;28;20551;-57
2021/12/18 09:05:18;;;;;;;27.10;16.02;;;;;;;3.11;85.02;98400.69;10375989;28;20076;-58
2021/12/18 09:10:18;;;;;;;31.55;18.15;;;;;;;3.26;84.57;98406.41;10376464;28;20570;-57
2021/12/18 09:15:17;;;;;;;28.25;15.70;;;;;;;3.20;82.64;98401.03;10376709;28;20072;-57
2021/12/18 09:20:16;;;;;;;23.15;14.68;;;;;;;3.18;83.32;98397.53;10373382;28;20937;-57
2021/12/18 09:25:15;;;;;;;;;;;;;;;3.07;83.19;98398.81;10391151;28;20522;-57
2021/12/18 09:30:15;;;;;;;35.78;21.27;;;;;;;3.06;83.08;98399.63;10416572;28;20379;-57
2021/12/18 09:35:15;;;;;;;29.42;18.30;;;;;;;3.24;83.88;98400.34;10399325;28;20064;-58
2021/12/18 09:40:16;;;;;;;20.40;12.23;;;;;;;3.50;84.40;98405.59;10375654;28;20418;-57
2021/12/18 09:45:16;;;;;;;25.73;16.63;;;;;;;3.53;83.80;98395.44;10347539;28;20546;-57
2021/12/18 09:50:18;;;;;;;32.30;18.65;;;;;;;3.67;nan;98386.53;10374575;28;20060;-57
2021/12/18 09:55:18;;;;;;;27.40;16.05;;;;;;;3.68;81.02;98390.84;10375607;28;20551;-57
2021/12/18 10:00:20;;;;;;;30.20;19.17;;;;;;;3.46;79.99;98383.19;10373666;28;20084;-57
2021/12/18 10:05:31;;;;;;;28.98;17.17;;;;;;;3.54;81.42;98392.94;10372197;28;20500;-57
2021/12/18 10:10:30;;;;;;;29.40;18.15;;;;;;;3.46;80.84;98376.34;10374184;28;20064;-57
2021/12/18 10:15:29;;;;;;;31.00;18.92;;;;;;;3.51;81.29;98379.97;10372302;28;20056;-57
2021/12/18 10:20:28;;;;;;;28.02;18.25;;;;;;;3.50;81.42;98380.78;10373221;28;20083;-57
2021/12/18 10:25:30;;;;;;;26.40;17.10;;;;;;;3.45;80.13;98384.88;10371460;28;20032;-57
2021/12/18 10:30:30;;;;;;;31.23;20.02;;;;;;;3.41;79.36;98385.59;10369271;28;20071;-57
2021/12/18 10:35:57;;;;;;;34.55;22.00;;;;;;;3.42;80.36;98380.53;10368054;28;20120;-57
2021/12/18 10:40:56;;;;;;;59.97;40.20;;;;;;;3.51;80.24;98379.97;10367566;28;20068;-57
2021/12/18 10:45:55;;;;;;;55.33;38.50;;;;;;;3.44;78.44;98381.41;10369709;28;20036;-57
2021/12/18 10:50:54;;;;;;;34.72;24.20;;;;;;;3.37;78.30;98358.94;10369636;28;20072;-57
2021/12/18 10:55:59;;;;;;;40.85;25.85;;;;;;;3.54;77.38;98369.84;10368790;28;20065;-57
2021/12/18 11:01:02;;;;;;;26.02;18.67;;;;;;;3.38;77.94;98364.97;10371846;28;20099;-57
2021/12/18 11:06:01;;;;;;;27.48;19.13;;;;;;;3.10;76.36;98357.91;10369764;28;20468;-57
2021/12/18 11:13:38;;;;;;;19.23;11.75;;;;;;;2.72;72.30;98359.84;10371336;28;20753;-57
2021/12/18 11:16:22;;;;;;;17.02;10.98;;;;;;;2.52;72.95;98362.50;10391786;28;20071;-57
2021/12/18 11:21:25;;;;;;;;;;;;;;;2.38;71.12;98368.75;10371940;28;20507;-57
2021/12/18 11:26:24;;;;;;;15.30;9.57;;;;;;;2.45;73.17;98369.88;10368935;28;19947;-57
2021/12/18 11:31:26;;;;;;;20.33;13.68;;;;;;;2.47;72.56;98350.31;10379677;28;20064;-57
2021/12/18 11:36:25;;;;;;;17.17;11.45;;;;;;;2.57;72.97;98366.09;10378980;28;20067;-57
2021/12/18 11:41:24;;;;;;;17.10;8.43;;;;;;;2.15;72.66;98381.47;10378546;28;20060;-57
2021/12/18 11:46:26;;;;;;;13.82;7.85;;;;;;;1.99;74.48;98381.63;10378950;28;20460;-57
2021/12/18 11:51:27;;;;;;;15.95;9.18;;;;;;;2.01;75.49;98380.00;10378553;28;20068;-57
2021/12/18 11:56:26;;;;;;;16.50;10.35;;;;;;;1.97;75.02;98375.56;10378353;28;20072;-57
2021/12/18 12:01:26;;;;;;;24.38;13.77;;;;;;;2.05;75.28;98384.44;10376853;28;20552;-57
2021/12/18 12:06:28;;;;;;;21.95;11.68;;;;;;;1.98;73.60;98377.31;10378114;28;20067;-57
2021/12/18 12:11:28;;;;;;;22.50;12.10;;;;;;;2.33;75.62;98383.06;10378587;28;20586;-57
2021/12/18 12:16:45;;;;;;;14.27;7.75;;;;;;;2.43;73.61;98376.63;10376876;28;20148;-57
2021/12/18 12:21:48;;;;;;;24.70;13.13;;;;;;;2.43;73.41;98367.25;10378202;28;20064;-57
2021/12/18 12:26:49;;;;;;;16.90;11.15;;;;;;;2.34;73.57;98380.53;10375758;28;20079;-57
2021/12/18 12:31:56;;;;;;;19.27;12.20;;;;;;;2.21;74.13;98382.53;10376952;28;20071;-58
2021/12/18 12:36:58;;;;;;;45.67;24.35;;;;;;;1.83;73.74;98382.63;10365961;28;20061;-57
2021/12/18 12:42:08;;;;;;;111.75;54.10;;;;;;;1.78;75.48;98380.69;10343447;28;20057;-58
2021/12/18 12:47:20;;;;;;;31.70;20.17;;;;;;;1.65;74.88;98379.31;10353401;28;20056;-58
2021/12/18 12:52:21;;;;;;;39.28;24.67;;;;;;;1.68;75.76;98392.22;10376115;28;20063;-58
2021/12/18 12:57:22;;;;;;;33.85;21.45;;;;;;;1.72;76.29;98400.09;10376629;28;20539;-58
2021/12/18 13:02:21;;;;;;;30.33;16.10;;;;;;;1.64;76.00;98400.56;10376255;28;20084;-58
2021/12/18 13:07:20;;;;;;;24.50;14.85;;;;;;;1.43;75.80;98395.34;10376275;28;20029;-58
2021/12/18 13:12:19;;;;;;;21.17;13.18;;;;;;;1.39;76.40;98413.91;10376799;28;20036;-58
2021/12/18 13:17:26;;;;;;;51.60;27.40;;;;;;;1.44;77.40;98407.34;10374466;28;20068;-58
2021/12/18 13:22:31;;;;;;;19.90;12.82;;;;;;;1.55;78.38;98431.69;10376234;28;20060;-58
2021/12/18 13:27:31;;;;;;;24.50;16.00;;;;;;;1.23;79.15;98403.00;10375368;28;20049;-58
2021/12/18 13:32:30;;;;;;;15.50;10.55;;;;;;;1.39;79.87;98436.94;10375709;28;20053;-58
2021/12/18 13:37:29;;;;;;;17.67;12.35;;;;;;;1.41;79.97;98448.09;10373642;28;20064;-58
2021/12/18 13:42:28;;;;;;;15.38;10.38;;;;;;;1.30;79.79;98456.16;10374885;28;20057;-59
2021/12/18 13:47:29;;;;;;;19.25;11.70;;;;;;;1.26;80.17;98468.75;10373839;28;20032;-59
2021/12/18 13:52:32;;;;;;;21.77;12.32;;;;;;;1.23;80.62;98468.59;10375071;28;20087;-59
2021/12/18 13:57:31;;;;;;;26.38;15.18;;;;;;;1.20;81.16;98459.09;10374544;28;20072;-59
2021/12/18 14:02:30;;;;;;;28.70;19.88;;;;;;;1.39;81.45;98468.50;10373194;28;20053;-58
2021/12/18 14:07:29;;;;;;;27.05;18.90;;;;;;;1.45;81.42;98456.00;10372825;28;20029;-59
2021/12/18 14:12:31;;;;;;;20.52;13.18;;;;;;;1.57;82.02;98465.91;10368500;28;20072;-58
2021/12/18 14:17:33;;;;;;;23.25;16.63;;;;;;;1.60;81.73;98449.81;10371937;28;20068;-58
2021/12/18 14:22:32;;;;;;;22.85;14.57;;;;;;;1.65;81.50;98466.28;10367014;28;20093;-59
2021/12/18 14:27:46;;;;;;;31.02;19.65;;;;;;;1.64;82.37;98452.59;10367337;28;20064;-59
2021/12/18 14:32:45;;;;;;;36.95;24.83;;;;;;;1.59;81.11;98448.94;10362432;28;20159;-58
2021/12/18 14:37:54;;;;;;;36.35;24.15;;;;;;;1.62;81.43;98471.22;10337393;28;20123;-58
2021/12/18 14:43:06;;;;;;;27.20;18.58;;;;;;;1.41;80.58;98466.00;10364411;28;20125;-59
2021/12/18 14:48:06;;;;;;;27.80;17.00;;;;;;;1.17;81.57;98469.16;10363644;28;20128;-58
2021/12/18 14:53:09;;;;;;;26.35;16.90;;;;;;;1.14;81.28;98474.16;10363244;28;20131;-59
2021/12/18 14:58:23;;;;;;;35.45;21.50;;;;;;;1.05;81.46;98478.81;10360942;28;20129;-58
2021/12/18 15:03:37;;;;;;;28.35;17.40;;;;;;;0.83;81.56;98457.34;10362966;28;20120;-58
2021/12/18 15:08:58;;;;;;;36.80;22.77;;;;;;;0.90;81.92;98479.84;10364140;28;20116;-58
2021/12/18 15:14:05;;;;;;;32.67;21.10;;;;;;;0.98;82.32;98487.88;10361784;28;20146;-58
2021/12/18 15:19:09;;;;;;;34.22;23.35;;;;;;;1.04;82.24;98487.31;10363422;28;20116;-58
2021/12/18 15:24:11;;;;;;;38.13;22.98;;;;;;;0.94;81.98;98485.09;10362643;28;20130;-58
2021/12/18 15:29:13;;;;;;;40.78;26.67;;;;;;;0.82;82.03;98490.47;10362962;28;20123;-58
2021/12/18 15:34:13;;;;;;;72.88;42.55;;;;;;;0.68;82.39;98487.25;10361326;28;20190;-58
2021/12/18 15:39:13;;;;;;;56.30;34.55;;;;;;;0.64;82.27;98503.22;10364013;28;20111;-58
2021/12/18 15:44:13;;;;;;;73.45;45.90;;;;;;;0.56;82.88;98499.41;10363383;28;20858;-59
2021/12/18 15:49:12;;;;;;;;;;;;;;;0.55;82.87;98505.31;10362600;28;20112;-58
2021/12/18 15:54:11;;;;;;;75.38;43.63;;;;;;;0.34;83.24;98490.66;10361040;28;19999;-58
2021/12/18 15:59:10;;;;;;;61.08;38.90;;;;;;;0.39;83.00;98507.09;10361122;28;20136;-58
2021/12/18 16:04:10;;;;;;;;;;;;;;;0.43;83.35;98511.56;10361718;28;20064;-58
2021/12/18 16:09:09;;;;;;;175.52;78.43;;;;;;;0.45;83.50;98512.53;10360271;28;20946;-58
2021/12/18 16:14:09;;;;;;;128.70;64.32;;;;;;;0.40;83.57;98505.41;10362764;28;20140;-58
2021/12/18 16:19:08;;;;;;;111.18;56.75;;;;;;;0.53;84.00;98509.47;10366683;28;20119;-58
2021/12/18 16:24:07;;;;;;;82.40;46.88;;;;;;;0.55;83.87;98510.44;10365608;28;20060;-58
2021/12/18 16:29:06;;;;;;;86.05;47.95;;;;;;;0.54;84.19;98509.53;10367203;28;20111;-58
2021/12/18 16:34:05;;;;;;;74.47;42.95;;;;;;;0.62;84.15;98518.47;10364967;28;20119;-58
2021/12/18 16:39:05;;;;;;;94.75;54.08;;;;;;;0.57;84.37;98506.25;10367735;28;20584;-58
2021/12/18 16:44:04;;;;;;;84.30;47.03;;;;;;;0.69;84.42;98525.63;10363169;28;20178;-58
2021/12/18 16:49:04;;;;;;;86.65;53.15;;;;;;;0.69;84.67;98529.88;10364708;28;20112;-58
2021/12/18 16:54:03;;;;;;;101.45;57.22;;;;;;;0.74;84.27;98538.66;10366750;28;20116;-58
2021/12/18 16:59:02;;;;;;;;;;;;;;;0.73;84.65;98551.31;10368434;28;20579;-58
2021/12/18 17:04:08;;;;;;;95.68;58.75;;;;;;;0.69;84.49;98535.00;10367801;28;20000;-58
2021/12/18 17:09:07;;;;;;;98.20;57.78;;;;;;;0.69;84.49;98545.22;10367909;28;20539;-58
2021/12/18 17:14:06;;;;;;;85.82;52.08;;;;;;;0.60;84.10;98530.28;10366559;28;20036;-58
2021/12/18 17:19:05;;;;;;;88.55;54.15;;;;;;;0.64;84.11;98559.44;10363238;28;20056;-58
2021/12/18 17:24:06;;;;;;;96.45;62.22;;;;;;;0.60;84.49;98560.94;10363848;28;20108;-58
2021/12/18 17:29:06;;;;;;;91.97;58.85;;;;;;;0.52;85.06;98546.88;10365545;28;20109;-58
2021/12/18 17:34:05;;;;;;;117.88;72.43;;;;;;;0.66;84.85;98552.69;10364296;28;20108;-58
2021/12/18 17:39:04;;;;;;;;;;;;;;;0.71;85.05;98551.28;10367613;28;20107;-58
2021/12/18 17:44:05;;;;;;;135.45;86.35;;;;;;;0.65;84.96;98538.19;10367404;28;20024;-58
2021/12/18 17:49:05;;;;;;;133.55;84.10;;;;;;;0.71;85.06;98537.59;10364937;28;20176;-58
2021/12/18 17:54:05;;;;;;;101.38;62.00;;;;;;;0.62;85.18;98517.59;10367076;28;20100;-58
2021/12/18 17:59:04;;;;;;;76.00;46.58;;;;;;;0.61;85.13;98538.81;10365430;28;20115;-58
2021/12/18 18:04:03;;;;;;;76.55;43.47;;;;;;;0.68;85.16;98554.53;10366505;28;20100;-58
2021/12/18 18:09:03;;;;;;;98.38;60.40;;;;;;;0.54;85.16;98555.50;10363042;28;20108;-58
2021/12/18 18:14:03;;;;;;;99.00;63.00;;;;;;;0.25;85.32;98566.78;10360698;28;20583;-58
2021/12/18 18:19:03;;;;;;;104.70;64.20;;;;;;;0.15;85.91;98567.97;10362891;28;20152;-58
2021/12/18 18:24:02;;;;;;;;;;;;;;;0.13;85.97;98572.09;10366717;28;20119;-58
2021/12/18 18:29:01;;;;;;;113.40;70.82;;;;;;;0.03;86.14;98580.06;10363386;28;19913;-59
2021/12/18 18:34:00;;;;;;;116.30;70.63;;;;;;;0.13;86.08;98578.91;10364316;28;20045;-58
2021/12/18 18:38:59;;;;;;;111.72;73.05;;;;;;;0.16;86.64;98566.28;10365831;28;20123;-60
2021/12/18 18:43:59;;;;;;;117.88;76.25;;;;;;;0.21;86.43;98560.63;10364118;28;20116;-60
2021/12/18 18:49:00;;;;;;;132.52;83.97;;;;;;;0.38;86.33;98568.28;10364186;28;20120;-60
2021/12/18 18:53:59;;;;;;;128.32;82.90;;;;;;;0.45;86.56;98562.69;10364456;28;20654;-59
2021/12/18 18:58:59;;;;;;;126.75;80.72;;;;;;;0.44;86.18;98559.25;10362800;28;20116;-58
2021/12/18 19:03:59;;;;;;;106.43;65.60;;;;;;;0.44;86.42;98546.50;10364329;28;20125;-58
2021/12/18 19:08:58;;;;;;;81.85;52.35;;;;;;;0.45;86.22;98550.81;10364395;28;20107;-58
2021/12/18 19:13:57;;;;;;;91.07;54.40;;;;;;;0.40;86.19;98544.56;10362544;28;20123;-58
2021/12/18 19:19:09;;;;;;;76.75;47.47;;;;;;;0.41;86.15;98548.91;10363332;28;20047;-58
2021/12/18 19:24:08;;;;;;;89.72;51.05;;;;;;;0.30;86.10;98541.50;10378182;28;20061;-58
2021/12/18 19:29:07;;;;;;;73.75;48.58;;;;;;;0.31;86.15;98556.00;10362564;28;20025;-63
2021/12/18 19:34:06;;;;;;;70.03;43.10;;;;;;;0.33;86.24;98555.28;10363255;28;20028;-58
2021/12/18 19:39:11;;;;;;;68.35;43.30;;;;;;;0.44;86.43;98549.03;10362739;28;20116;-58
2021/12/18 19:44:10;;;;;;;71.55;47.83;;;;;;;0.45;86.71;98553.38;10364449;28;20560;-58
2021/12/18 19:49:09;;;;;;;76.72;49.53;;;;;;;0.52;86.28;98551.13;10369782;28;20025;-59
2021/12/18 19:54:08;;;;;;;57.60;35.85;;;;;;;0.40;86.67;98544.56;10372519;28;20488;-59
2021/12/18 19:59:07;;;;;;;53.45;34.58;;;;;;;0.38;86.56;98550.41;10367867;28;20044;-58
2021/12/18 20:09:24;;;;;;;57.72;37.63;;;;;;;0.39;86.18;98550.50;10370307;28;20124;-58
2021/12/18 20:14:25;;;;;;;80.30;51.45;;;;;;;0.37;86.35;98551.22;10370582;28;20159;-58
2021/12/18 20:19:25;;;;;;;87.97;55.25;;;;;;;0.37;86.40;98541.00;10366279;28;20559;-58
2021/12/18 20:24:25;;;;;;;82.57;51.38;;;;;;;0.35;86.18;98543.47;10368807;28;20104;-58
2021/12/18 20:29:24;;;;;;;71.85;45.53;;;;;;;0.34;86.57;98528.09;10370277;28;20104;-58
2021/12/18 20:34:24;;;;;;;70.20;44.67;;;;;;;0.30;86.74;98523.63;10370038;28;20118;-58
2021/12/18 20:39:25;;;;;;;62.95;39.58;;;;;;;0.30;86.40;98537.25;10369531;28;20135;-58
2021/12/18 20:44:24;;;;;;;68.10;42.38;;;;;;;0.24;86.31;98540.38;10371313;28;20109;-58
2021/12/18 20:49:23;;;;;;;83.82;50.15;;;;;;;0.14;86.34;98516.84;10369618;28;20032;-59
2021/12/18 20:54:22;;;;;;;87.80;54.25;;;;;;;0.13;86.36;98535.50;10370347;28;20132;-58
2021/12/18 20:59:22;;;;;;;;;;;;;;;0.11;86.29;98537.09;10369071;28;20167;-59
2021/12/18 21:04:20;;;;;;;124.28;76.00;;;;;;;0.11;86.52;98543.06;10368006;28;20024;-58
2021/12/18 21:09:20;;;;;;;116.38;72.35;;;;;;;0.10;86.67;98530.22;10367996;28;20024;-58
2021/12/18 21:14:19;;;;;;;120.40;69.95;;;;;;;0.08;86.73;98513.94;10358445;28;20136;-58
2021/12/18 21:19:18;;;;;;;129.68;80.68;;;;;;;0.00;86.71;98514.44;10349352;28;20847;-58
2021/12/18 21:24:17;;;;;;;94.25;59.05;;;;;;;0.19;86.83;98515.38;10361450;28;20029;-58
2021/12/18 21:29:17;;;;;;;;;;;;;;;0.09;87.33;98505.50;10362997;28;20052;-59
2021/12/18 21:36:35;;;;;;;;;;;;;;;0.04;87.36;98508.69;10361956;28;20015;-58
2021/12/18 21:39:38;;;;;;;140.05;84.03;;;;;;;0.11;87.67;98517.56;10362482;28;20471;-58
2021/12/18 21:44:38;;;;;;;119.32;71.07;;;;;;;0.17;87.35;98506.78;10357757;28;20143;-58
2021/12/18 21:49:37;;;;;;;;;;;;;;;0.23;87.50;98491.78;10359830;28;21550;-58
2021/12/18 21:54:37;;;;;;;88.75;52.30;;;;;;;0.24;87.14;98489.31;10360708;28;20364;-59
2021/12/18 21:59:36;;;;;;;84.93;49.25;;;;;;;0.28;87.05;98480.13;10359423;28;20161;-57
2021/12/18 22:04:35;;;;;;;;;;;;;;;0.31;87.16;98484.50;10363741;28;20108;-57
2021/12/18 22:09:34;;;;;;;82.72;47.22;;;;;;;0.00;87.12;98473.59;10361037;28;19912;-57
2021/12/18 22:14:33;;;;;;;87.25;51.65;;;;;;;-0.19;86.95;98479.41;10367733;28;20558;-59
2021/12/18 22:19:32;;;;;;;82.47;50.85;;;;;;;-0.41;87.20;98490.16;10360757;28;20037;-59
2021/12/18 22:24:32;;;;;;;82.70;50.95;;;;;;;-0.73;87.86;98483.31;10333846;28;20057;-59
2021/12/18 22:29:31;;;;;;;82.18;50.45;;;;;;;-0.80;88.06;98478.69;10356561;28;20447;-59
2021/12/18 22:34:30;;;;;;;90.05;52.58;;;;;;;-0.83;87.42;98474.28;10374382;28;20408;-59
2021/12/18 22:39:29;;;;;;;83.82;45.78;;;;;;;-0.75;87.71;98456.00;10350015;28;20076;-59
2021/12/18 22:44:28;;;;;;;85.97;44.75;;;;;;;-0.72;87.72;98462.16;10332484;28;20134;-59
2021/12/18 22:49:27;;;;;;;72.10;43.35;;;;;;;-0.73;87.21;98442.53;10345048;28;20067;-59
2021/12/18 22:54:27;;;;;;;73.30;45.47;;;;;;;-0.76;87.09;98444.94;10333252;28;20026;-59
2021/12/18 22:59:26;;;;;;;85.60;52.63;;;;;;;-0.81;87.03;98431.94;10334019;28;20096;-57
2021/12/18 23:04:25;;;;;;;80.65;49.47;;;;;;;-0.86;87.27;98428.28;10370409;28;20029;-59
2021/12/18 23:09:24;;;;;;;90.05;54.03;;;;;;;-1.00;87.80;98416.44;10373109;28;20028;-59
2021/12/18 23:14:50;;;;;;;102.53;55.97;;;;;;;-1.01;87.92;98410.44;10373568;28;20088;-59
2021/12/18 23:25:06;;;;;;;95.63;52.97;;;;;;;-0.86;88.12;98410.44;10372056;28;20068;-59
2021/12/18 23:30:06;;;;;;;89.47;52.15;;;;;;;-0.84;87.72;98403.75;10371573;28;20061;-59
2021/12/18 23:35:06;;;;;;;94.55;52.50;;;;;;;-0.86;87.50;98391.69;10372489;28;20071;-58
2021/12/18 23:40:10;;;;;;;96.57;55.70;;;;;;;-0.83;88.04;98391.88;10371554;28;20131;-58
2021/12/18 23:50:29;;;;;;;114.72;68.28;;;;;;;-0.74;88.50;98371.09;10373150;28;20519;-59
2021/12/18 23:55:28;;;;;;;158.93;94.50;;;;;;;-0.84;88.38;98359.53;10371537;28;20496;-59
